createdAt,value
2019-04-26T00:01:11.642Z,12.53
2019-04-26T00:03:49.311Z,12.05
2019-04-26T00:06:19.592Z,11.18
2019-04-26T00:09:00.371Z,12.60
2019-04-26T00:11:36.328Z,11.53
2019-04-26T00:14:08.364Z,10.98
2019-04-26T00:16:58.419Z,11.73
2019-04-26T00:19:28.852Z,11.85
2019-04-26T00:21:59.269Z,11.75
2019-04-26T00:24:29.919Z,12.37
2019-04-26T00:26:59.996Z,12.65
2019-04-26T00:29:30.032Z,11.80
2019-04-26T00:32:00.232Z,12.90
2019-04-26T00:34:30.199Z,12.93
2019-04-26T00:37:00.284Z,13.40
2019-04-26T00:39:30.413Z,13.05
2019-04-26T00:42:00.433Z,13.00
2019-04-26T00:44:30.411Z,12.98
2019-04-26T00:47:02.910Z,14.50
2019-04-26T00:49:43.479Z,13.70
2019-04-26T00:52:06.338Z,14.03
2019-04-26T00:54:38.129Z,14.43
2019-04-26T00:57:08.427Z,13.95
2019-04-26T00:59:38.887Z,14.38
2019-04-26T01:02:20.575Z,13.93
2019-04-26T01:04:50.467Z,15.15
2019-04-26T01:07:21.168Z,14.75
2019-04-26T01:09:51.268Z,14.00
2019-04-26T01:12:21.925Z,13.72
2019-04-26T01:14:52.057Z,14.83
2019-04-26T01:17:22.410Z,17.25
2019-04-26T01:19:55.142Z,14.55
2019-04-26T01:22:28.159Z,15.03
2019-04-26T01:25:01.058Z,13.45
2019-04-26T01:27:32.216Z,13.78
2019-04-26T01:30:08.153Z,14.80
2019-04-26T01:32:41.003Z,16.02
2019-04-26T01:35:10.923Z,13.25
2019-04-26T01:37:45.051Z,13.88
2019-04-26T01:40:16.758Z,13.25
2019-04-26T01:43:02.590Z,14.13
2019-04-26T01:45:53.081Z,12.58
2019-04-26T01:48:45.560Z,11.93
2019-04-26T01:51:18.617Z,11.15
2019-04-26T01:53:51.723Z,11.70
2019-04-26T01:56:25.164Z,11.80
2019-04-26T01:58:55.211Z,11.15
2019-04-26T02:01:42.770Z,10.40
2019-04-26T02:04:12.895Z,11.68
2019-04-26T02:06:42.954Z,12.58
2019-04-26T02:09:13.031Z,11.22
2019-04-26T02:11:43.447Z,10.45
2019-04-26T02:14:13.706Z,10.93
2019-04-26T02:16:43.860Z,10.98
2019-04-26T02:19:13.899Z,11.60
2019-04-26T02:21:46.061Z,11.55
2019-04-26T02:24:30.107Z,11.43
2019-04-26T02:27:02.274Z,11.28
2019-04-26T02:29:32.724Z,10.58
2019-04-26T02:32:05.739Z,10.15
2019-04-26T02:34:38.004Z,9.98
2019-04-26T02:37:11.543Z,10.32
2019-04-26T02:39:43.067Z,11.33
2019-04-26T02:42:30.169Z,11.45
2019-04-26T02:45:10.108Z,11.45
2019-04-26T02:47:44.744Z,11.90
2019-04-26T02:50:21.468Z,11.63
2019-04-26T02:53:11.235Z,12.05
2019-04-26T02:56:08.324Z,12.00
2019-04-26T02:58:59.972Z,11.83
2019-04-26T03:01:32.350Z,12.73
2019-04-26T03:04:02.571Z,11.57
2019-04-26T03:06:34.938Z,11.63
2019-04-26T03:09:07.539Z,13.00
2019-04-26T03:11:45.911Z,11.60
2019-04-26T03:14:22.380Z,12.73
2019-04-26T03:16:59.829Z,14.07
2019-04-26T03:19:42.988Z,13.53
2019-04-26T03:22:22.104Z,13.68
2019-04-26T03:25:04.406Z,13.93
2019-04-26T03:27:49.572Z,13.48
2019-04-26T03:30:28.290Z,12.45
2019-04-26T03:33:22.734Z,12.45
2019-04-26T03:36:00.184Z,12.68
2019-04-26T03:38:52.979Z,13.18
2019-04-26T03:41:44.317Z,12.45
2019-04-26T03:44:27.418Z,12.63
2019-04-26T03:46:59.498Z,12.53
2019-04-26T03:49:42.070Z,12.58
2019-04-26T03:52:38.015Z,12.47
2019-04-26T03:55:27.848Z,12.07
2019-04-26T03:58:14.604Z,12.00
2019-04-26T04:01:05.133Z,11.38
2019-04-26T04:03:47.897Z,11.70
2019-04-26T04:06:28.651Z,15.78
2019-04-26T04:09:01.767Z,11.35
2019-04-26T04:12:10.970Z,11.73
2019-04-26T04:14:48.679Z,11.60
2019-04-26T04:17:23.300Z,11.48
2019-04-26T04:20:15.735Z,10.63
2019-04-26T04:22:57.897Z,11.12
2019-04-26T04:25:49.102Z,10.58
2019-04-26T04:28:34.636Z,10.68
2019-04-26T04:31:10.410Z,10.88
2019-04-26T04:33:49.709Z,11.03
2019-04-26T04:36:22.876Z,11.00
2019-04-26T04:39:13.040Z,11.25
2019-04-26T04:42:04.951Z,11.33
2019-04-26T04:45:05.046Z,11.00
2019-04-26T04:48:06.739Z,10.70
2019-04-26T04:50:43.163Z,10.63
2019-04-26T04:53:17.077Z,11.08
2019-04-26T04:56:18.854Z,10.93
2019-04-26T04:58:54.447Z,10.45
2019-04-26T05:01:46.192Z,11.28
2019-04-26T05:04:30.646Z,11.93
2019-04-26T05:07:26.310Z,12.00
2019-04-26T05:10:09.380Z,13.48
2019-04-26T05:12:46.332Z,17.40
2019-04-26T05:15:54.944Z,20.45
2019-04-26T05:18:42.825Z,19.87
2019-04-26T05:21:24.701Z,19.40
2019-04-26T05:24:13.251Z,19.25
2019-04-26T05:27:11.962Z,19.25
2019-04-26T05:30:06.187Z,17.98
2019-04-26T05:32:57.014Z,17.73
2019-04-26T05:35:51.049Z,16.25
2019-04-26T05:38:36.176Z,16.77
2019-04-26T05:41:12.195Z,16.45
2019-04-26T05:44:08.243Z,17.17
2019-04-26T05:47:20.949Z,16.48
2019-04-26T05:49:59.720Z,15.18
2019-04-26T05:52:51.604Z,14.70
2019-04-26T05:55:32.540Z,15.53
2019-04-26T05:58:09.412Z,17.40
2019-04-26T06:00:58.900Z,16.73
2019-04-26T06:04:12.212Z,16.62
2019-04-26T06:06:59.382Z,18.98
2019-04-26T06:09:59.275Z,18.60
2019-04-26T06:13:06.632Z,18.02
2019-04-26T06:15:43.994Z,17.37
2019-04-26T06:18:30.749Z,18.05
2019-04-26T06:21:10.502Z,16.73
2019-04-26T06:24:04.725Z,16.12
2019-04-26T06:26:52.783Z,15.35
2019-04-26T06:29:45.800Z,15.72
2019-04-26T06:32:35.367Z,16.32
2019-04-26T06:35:20.135Z,17.30
2019-04-26T06:38:03.936Z,14.73
2019-04-26T06:40:56.444Z,14.78
2019-04-26T06:43:31.127Z,13.75
2019-04-26T06:46:20.306Z,12.40
2019-04-26T06:49:12.129Z,9.00
2019-04-26T06:51:48.227Z,7.33
2019-04-26T06:54:27.067Z,6.50
2019-04-26T06:57:19.187Z,6.62
2019-04-26T07:00:05.227Z,6.33
2019-04-26T07:02:41.285Z,6.20
2019-04-26T07:05:23.534Z,6.47
2019-04-26T07:08:09.163Z,5.53
2019-04-26T07:10:48.653Z,5.75
2019-04-26T07:13:44.330Z,4.90
2019-04-26T07:16:40.034Z,5.70
2019-04-26T07:19:15.915Z,5.20
2019-04-26T07:22:35.404Z,5.25
2019-04-26T07:25:28.655Z,5.22
2019-04-26T07:28:12.347Z,4.28
2019-04-26T07:31:04.155Z,4.35
2019-04-26T07:33:42.767Z,3.83
2019-04-26T07:36:52.279Z,3.77
2019-04-26T07:39:44.903Z,3.33
2019-04-26T07:42:31.522Z,4.00
2019-04-26T07:45:32.176Z,4.05
2019-04-26T07:48:18.779Z,3.62
2019-04-26T07:51:17.586Z,4.00
2019-04-26T07:54:17.863Z,3.40
2019-04-26T07:56:56.474Z,3.35
2019-04-26T07:59:55.456Z,4.05
2019-04-26T08:02:49.443Z,4.58
2019-04-26T08:05:58.707Z,3.40
2019-04-26T08:08:31.799Z,3.65
2019-04-26T08:11:11.554Z,3.98
2019-04-26T08:13:59.332Z,3.55
2019-04-26T08:16:36.388Z,3.17
2019-04-26T08:19:10.685Z,3.17
2019-04-26T08:21:48.138Z,2.77
2019-04-26T08:24:21.761Z,3.20
2019-04-26T08:27:08.098Z,3.25
2019-04-26T08:29:33.404Z,3.35
2019-04-26T08:32:07.000Z,3.83
2019-04-26T08:34:42.076Z,3.37
2019-04-26T08:37:19.188Z,3.58
2019-04-26T08:39:51.863Z,3.20
2019-04-26T08:42:24.968Z,3.55
2019-04-26T08:44:58.666Z,3.33
2019-04-26T08:47:51.061Z,3.58
2019-04-26T08:50:23.654Z,3.50
2019-04-26T08:52:57.896Z,3.52
2019-04-26T08:55:29.471Z,3.27
2019-04-26T08:58:02.551Z,3.65
2019-04-26T09:00:37.727Z,4.60
2019-04-26T09:03:12.128Z,3.52
2019-04-26T09:05:49.970Z,3.60
2019-04-26T09:08:20.462Z,3.10
2019-04-26T09:10:52.808Z,3.17
2019-04-26T09:13:25.949Z,3.40
2019-04-26T09:16:07.780Z,3.62
2019-04-26T09:18:43.403Z,3.20
2019-04-26T09:21:09.227Z,3.58
2019-04-26T09:23:44.371Z,3.77
2019-04-26T09:26:25.815Z,3.50
2019-04-26T09:29:03.286Z,3.30
2019-04-26T09:31:41.040Z,3.70
2019-04-26T09:34:12.580Z,3.40
2019-04-26T09:36:45.511Z,3.43
2019-04-26T09:39:15.828Z,3.00
2019-04-26T09:41:45.544Z,3.33
2019-04-26T09:44:32.003Z,3.37
2019-04-26T09:47:21.594Z,3.37
2019-04-26T09:49:58.618Z,3.33
2019-04-26T09:52:42.203Z,3.07
2019-04-26T09:55:12.718Z,3.00
2019-04-26T09:57:42.566Z,3.20
2019-04-26T10:00:16.387Z,3.33
2019-04-26T10:02:46.987Z,3.43
2019-04-26T10:05:22.090Z,3.23
2019-04-26T10:07:49.131Z,2.87
2019-04-26T10:10:23.153Z,3.50
2019-04-26T10:13:08.287Z,3.07
2019-04-26T10:18:32.603Z,3.30
2019-04-26T10:21:02.289Z,3.93
2019-04-26T10:23:31.950Z,3.43
2019-04-26T10:26:03.349Z,2.70
2019-04-26T10:28:33.023Z,3.37
2019-04-26T10:31:03.287Z,3.60
2019-04-26T10:33:36.589Z,3.67
2019-04-26T10:36:04.402Z,3.20
2019-04-26T10:38:34.062Z,3.00
2019-04-26T10:41:04.232Z,3.67
2019-04-26T10:43:38.188Z,4.40
2019-04-26T10:46:08.745Z,3.37
2019-04-26T10:48:41.203Z,3.80
2019-04-26T10:51:12.545Z,3.40
2019-04-26T10:53:50.456Z,3.40
2019-04-26T10:56:38.292Z,3.20
2019-04-26T10:59:15.528Z,3.33
2019-04-26T11:01:45.292Z,3.10
2019-04-26T11:04:15.835Z,2.90
2019-04-26T11:06:45.508Z,2.67
2019-04-26T11:09:15.301Z,3.17
2019-04-26T11:11:44.950Z,2.80
2019-04-26T11:14:18.425Z,2.50
2019-04-26T11:16:46.464Z,3.77
2019-04-26T11:19:16.158Z,3.00
2019-04-26T11:21:45.844Z,3.57
2019-04-26T11:24:19.425Z,5.73
2019-04-26T11:26:48.382Z,3.30
2019-04-26T11:29:17.694Z,3.10
2019-04-26T11:31:46.995Z,3.30
2019-04-26T11:34:19.174Z,3.10
2019-04-26T11:36:47.182Z,2.87
2019-04-26T11:39:16.828Z,3.00
2019-04-26T11:41:46.706Z,3.70
2019-04-26T11:44:16.353Z,2.83
2019-04-26T11:46:46.098Z,3.00
2019-04-26T11:49:15.874Z,2.90
2019-04-26T11:51:45.611Z,3.30
2019-04-26T11:54:17.080Z,3.20
2019-04-26T11:56:46.772Z,3.10
2019-04-26T11:59:16.537Z,3.17
2019-04-26T12:01:45.919Z,3.40
2019-04-26T12:04:33.765Z,3.10
2019-04-26T12:07:07.774Z,2.80
2019-04-26T12:09:48.516Z,3.00
2019-04-26T12:12:19.142Z,3.33
2019-04-26T12:14:48.831Z,2.63
2019-04-26T12:17:18.370Z,2.60
2019-04-26T12:19:48.231Z,3.30
2019-04-26T12:22:19.395Z,2.90
2019-04-26T12:24:49.038Z,2.67
2019-04-26T12:27:18.835Z,3.00
2019-04-26T12:29:49.826Z,2.90
2019-04-26T12:32:19.643Z,3.60
2019-04-26T12:34:49.284Z,3.50
2019-04-26T12:37:20.897Z,3.30
2019-04-26T12:39:50.367Z,3.10
2019-04-26T12:42:19.927Z,4.23
2019-04-26T12:45:07.575Z,3.03
2019-04-26T12:47:48.702Z,3.17
2019-04-26T12:50:18.580Z,3.00
2019-04-26T12:52:51.429Z,3.07
2019-04-26T12:55:20.176Z,3.40
2019-04-26T12:57:49.693Z,3.43
2019-04-26T13:00:21.354Z,3.80
2019-04-26T13:02:54.301Z,3.57
2019-04-26T13:05:23.191Z,4.30
2019-04-26T13:07:53.724Z,3.77
2019-04-26T13:10:41.558Z,3.63
2019-04-26T13:13:12.865Z,4.57
2019-04-26T13:16:01.101Z,4.03
2019-04-26T13:18:31.734Z,4.53
2019-04-26T13:21:02.879Z,4.37
2019-04-26T13:23:31.979Z,4.37
2019-04-26T13:26:01.763Z,4.17
2019-04-26T13:28:31.566Z,4.33
2019-04-26T13:31:04.524Z,4.13
2019-04-26T13:33:34.209Z,4.77
2019-04-26T13:36:03.890Z,4.60
2019-04-26T13:38:34.149Z,4.43
2019-04-26T13:41:06.292Z,4.37
2019-04-26T13:43:39.099Z,5.10
2019-04-26T13:46:26.466Z,4.83
2019-04-26T13:49:00.119Z,4.70
2019-04-26T13:51:31.045Z,4.90
2019-04-26T13:54:00.303Z,5.33
2019-04-26T13:56:32.023Z,4.47
2019-04-26T13:59:00.941Z,4.87
2019-04-26T14:01:32.578Z,5.47
2019-04-26T14:04:06.939Z,4.90
2019-04-26T14:06:37.021Z,5.33
2019-04-26T14:09:10.460Z,5.37
2019-04-26T14:11:41.384Z,4.50
2019-04-26T14:14:14.110Z,5.37
2019-04-26T14:16:43.777Z,5.37
2019-04-26T14:19:15.604Z,5.37
2019-04-26T14:21:45.139Z,6.03
2019-04-26T14:24:28.392Z,5.50
2019-04-26T14:27:02.350Z,5.63
2019-04-26T14:29:32.768Z,4.97
2019-04-26T14:32:03.353Z,4.83
2019-04-26T14:34:36.189Z,5.43
2019-04-26T14:37:06.761Z,5.50
2019-04-26T14:39:49.680Z,4.90
2019-04-26T14:42:07.166Z,5.30
2019-04-26T14:44:48.855Z,5.23
2019-04-26T14:47:14.907Z,5.23
2019-04-26T14:49:42.824Z,5.20
2019-04-26T14:52:10.887Z,5.67
2019-04-26T14:54:41.531Z,4.97
2019-04-26T14:57:21.071Z,5.20
2019-04-26T14:59:46.973Z,5.43
2019-04-26T15:02:30.169Z,5.00
2019-04-26T15:05:17.984Z,5.53
2019-04-26T15:07:50.966Z,5.50
2019-04-26T15:10:20.807Z,5.17
2019-04-26T15:12:58.588Z,4.93
2019-04-26T15:15:21.897Z,5.73
2019-04-26T15:17:53.626Z,5.10
2019-04-26T15:20:24.317Z,5.70
2019-04-26T15:22:55.508Z,6.30
2019-04-26T15:25:25.230Z,6.90
2019-04-26T15:27:54.891Z,6.80
2019-04-26T15:30:24.573Z,6.50
2019-04-26T15:32:54.214Z,7.13
2019-04-26T15:35:23.948Z,6.93
2019-04-26T15:37:57.407Z,7.17
2019-04-26T15:40:27.379Z,6.60
2019-04-26T15:43:02.973Z,6.30
2019-04-26T15:45:38.774Z,6.93
2019-04-26T15:48:23.045Z,7.60
2019-04-26T15:50:54.592Z,6.90
2019-04-26T15:53:24.418Z,7.07
2019-04-26T15:56:19.214Z,7.00
2019-04-26T15:58:49.166Z,7.00
2019-04-26T16:01:18.995Z,6.97
2019-04-26T16:03:48.735Z,7.40
2019-04-26T16:06:18.375Z,7.17
2019-04-26T16:08:48.333Z,6.97
2019-04-26T16:11:18.018Z,7.07
2019-04-26T16:13:52.156Z,6.57
2019-04-26T16:16:20.527Z,7.17
2019-04-26T16:18:55.508Z,7.13
2019-04-26T16:21:23.042Z,7.27
2019-04-26T16:23:55.281Z,7.17
2019-04-26T16:26:25.233Z,7.20
2019-04-26T16:28:56.583Z,6.90
2019-04-26T16:31:37.003Z,9.90
2019-04-26T16:34:10.809Z,7.33
2019-04-26T16:36:42.192Z,6.93
2019-04-26T16:39:13.185Z,7.63
2019-04-26T16:41:43.091Z,6.50
2019-04-26T16:44:13.137Z,7.23
2019-04-26T16:46:43.886Z,6.07
2019-04-26T16:49:16.636Z,7.50
2019-04-26T16:51:46.319Z,7.87
2019-04-26T16:54:21.784Z,7.97
2019-04-26T16:56:52.540Z,7.50
2019-04-26T16:59:26.580Z,7.67
2019-04-26T17:01:53.781Z,7.77
2019-04-26T17:04:28.443Z,6.47
2019-04-26T17:06:54.886Z,7.07
2019-04-26T17:09:28.753Z,7.60
2019-04-26T17:11:56.035Z,7.77
2019-04-26T17:14:26.184Z,7.43
2019-04-26T17:16:56.003Z,7.33
2019-04-26T17:19:25.735Z,7.83
2019-04-26T17:22:01.035Z,8.13
2019-04-26T17:24:43.842Z,7.70
2019-04-26T17:27:14.388Z,7.43
2019-04-26T17:29:44.082Z,7.77
2019-04-26T17:32:17.177Z,8.27
2019-04-26T17:34:45.359Z,8.20
2019-04-26T17:37:17.441Z,9.07
2019-04-26T17:39:47.474Z,8.97
2019-04-26T17:42:17.748Z,8.43
2019-04-26T17:44:49.472Z,8.90
2019-04-26T17:47:20.251Z,7.57
2019-04-26T17:49:50.191Z,8.57
2019-04-26T17:52:21.431Z,8.43
2019-04-26T17:54:52.083Z,8.43
2019-04-26T17:57:33.506Z,8.93
2019-04-26T18:00:06.809Z,8.23
2019-04-26T18:02:40.395Z,7.57
2019-04-26T18:05:00.860Z,8.23
2019-04-26T18:07:43.295Z,8.17
2019-04-26T18:10:02.316Z,8.00
2019-04-26T18:12:32.692Z,8.87
2019-04-26T18:15:05.011Z,8.63
2019-04-26T18:17:40.148Z,8.60
2019-04-26T18:20:28.707Z,8.20
2019-04-26T18:23:09.937Z,8.57
2019-04-26T18:25:37.008Z,10.03
2019-04-26T18:28:08.704Z,8.67
2019-04-26T18:30:40.364Z,8.43
2019-04-26T18:33:09.523Z,7.87
2019-04-26T18:35:41.801Z,8.63
2019-04-26T18:38:12.552Z,8.37
2019-04-26T18:40:58.463Z,8.80
2019-04-26T18:43:23.900Z,8.87
2019-04-26T18:45:53.242Z,8.63
2019-04-26T18:48:35.236Z,8.30
2019-04-26T18:51:03.082Z,9.57
2019-04-26T18:53:39.293Z,9.30
2019-04-26T18:56:07.502Z,8.67
2019-04-26T18:58:38.005Z,9.03
2019-04-26T19:01:09.864Z,8.80
2019-04-26T19:03:39.511Z,8.13
2019-04-26T19:06:09.162Z,9.40
2019-04-26T19:08:47.706Z,8.63
2019-04-26T19:11:11.815Z,9.30
2019-04-26T19:13:43.406Z,9.13
2019-04-26T19:16:21.571Z,8.47
2019-04-26T19:18:56.003Z,9.67
2019-04-26T19:21:39.193Z,9.30
2019-04-26T19:24:11.910Z,9.73
2019-04-26T19:26:39.107Z,9.87
2019-04-26T19:29:17.638Z,8.90
2019-04-26T19:31:41.488Z,9.33
2019-04-26T19:34:11.685Z,9.70
2019-04-26T19:36:42.072Z,9.33
2019-04-26T19:39:13.143Z,9.10
2019-04-26T19:41:44.446Z,9.00
2019-04-26T19:44:14.626Z,9.80
2019-04-26T19:46:51.936Z,10.30
2019-04-26T19:49:25.946Z,10.00
2019-04-26T19:52:05.094Z,10.93
2019-04-26T19:54:38.458Z,9.83
2019-04-26T19:57:12.567Z,10.63
2019-04-26T19:59:42.355Z,11.23
2019-04-26T20:02:12.814Z,10.60
2019-04-26T20:04:42.636Z,10.30
2019-04-26T20:07:12.523Z,10.53
2019-04-26T20:09:42.205Z,10.63
2019-04-26T20:12:13.623Z,10.47
2019-04-26T20:14:50.357Z,10.77
2019-04-26T20:17:19.805Z,10.90
2019-04-26T20:19:47.700Z,11.48
2019-04-26T20:22:22.087Z,10.73
2019-04-26T20:24:55.971Z,11.75
2019-04-26T20:27:28.578Z,12.10
2019-04-26T20:29:58.211Z,12.07
2019-04-26T20:32:34.166Z,11.23
2019-04-26T20:35:13.153Z,11.88
2019-04-26T20:37:45.095Z,10.40
2019-04-26T20:40:22.151Z,11.25
2019-04-26T20:42:47.826Z,11.65
2019-04-26T20:45:17.473Z,11.60
2019-04-26T20:47:53.798Z,11.87
2019-04-26T20:50:19.444Z,12.33
2019-04-26T20:52:49.485Z,10.95
2019-04-26T20:55:23.474Z,11.43
2019-04-26T20:57:51.979Z,11.00
2019-04-26T21:00:22.506Z,11.87
2019-04-26T21:02:54.043Z,10.08
2019-04-26T21:05:24.316Z,9.73
2019-04-26T21:07:54.039Z,9.57
2019-04-26T21:10:25.665Z,10.00
2019-04-26T21:12:55.888Z,9.43
2019-04-26T21:15:25.903Z,10.08
2019-04-26T21:17:56.598Z,10.35
2019-04-26T21:20:27.613Z,10.23
2019-04-26T21:23:02.357Z,10.38
2019-04-26T21:25:35.382Z,10.20
2019-04-26T21:28:23.705Z,11.10
2019-04-26T21:31:03.509Z,9.68
2019-04-26T21:33:38.762Z,10.10
2019-04-26T21:36:24.193Z,10.03
2019-04-26T21:39:13.656Z,9.98
2019-04-26T21:41:48.575Z,10.05
2019-04-26T21:44:19.399Z,9.77
2019-04-26T21:46:49.588Z,10.95
2019-04-26T21:49:22.238Z,10.45
2019-04-26T21:51:54.209Z,9.25
2019-04-26T21:54:25.204Z,10.20
2019-04-26T21:56:55.628Z,10.03
2019-04-26T21:59:25.659Z,9.80
2019-04-26T22:01:59.171Z,10.13
2019-04-26T22:04:34.190Z,9.78
2019-04-26T22:07:05.231Z,10.70
2019-04-26T22:09:40.416Z,9.93
2019-04-26T22:12:13.072Z,11.00
2019-04-26T22:14:46.631Z,11.12
2019-04-26T22:17:18.503Z,10.78
2019-04-26T22:19:50.124Z,11.38
2019-04-26T22:22:27.960Z,11.22
2019-04-26T22:24:59.568Z,11.45
2019-04-26T22:27:29.522Z,12.25
2019-04-26T22:29:59.483Z,11.00
2019-04-26T22:32:29.462Z,10.80
2019-04-26T22:34:59.422Z,25.17
2019-04-26T22:37:30.300Z,14.00
2019-04-26T22:40:03.160Z,14.00
2019-04-26T22:42:39.888Z,12.80
2019-04-26T22:45:14.778Z,13.30
2019-04-26T22:47:49.036Z,12.53
2019-04-26T22:50:20.741Z,12.10
2019-04-26T22:52:51.758Z,11.50
2019-04-26T22:55:27.220Z,11.40
2019-04-26T22:57:55.295Z,11.68
2019-04-26T23:00:29.404Z,11.45
2019-04-26T23:03:05.454Z,11.28
2019-04-26T23:05:35.107Z,11.05
2019-04-26T23:08:03.368Z,11.53
2019-04-26T23:10:44.164Z,11.48
2019-04-26T23:13:30.843Z,11.33
2019-04-26T23:16:18.931Z,11.33
2019-04-26T23:18:50.565Z,12.55
2019-04-26T23:21:22.164Z,13.80
2019-04-26T23:23:53.459Z,13.72
2019-04-26T23:26:23.606Z,13.43
2019-04-26T23:28:53.634Z,11.28
2019-04-26T23:31:23.778Z,13.22
2019-04-26T23:33:54.034Z,13.13
2019-04-26T23:36:24.226Z,11.40
2019-04-26T23:38:54.244Z,19.05
2019-04-26T23:41:24.363Z,16.25
2019-04-26T23:44:02.304Z,14.05
2019-04-26T23:46:26.153Z,12.50
2019-04-26T23:48:56.220Z,11.68
2019-04-26T23:51:26.348Z,13.70
2019-04-26T23:53:57.807Z,12.43
2019-04-26T23:56:28.072Z,12.73
2019-04-26T23:58:58.046Z,11.65
